Time;durP1;ratioP1;P1;durP2;ratioP2;P2;SDS_P1;SDS_P2;PMS_P1;PMS_P2;Temp;Humidity;BMP_temperature;BMP_pressure;BME280_temperature;BME280_humidity;BME280_pressure;Samples;Min_cycle;Max_cycle;Signal;HPM_P1;HPM_P2
2020/12/12 00:00:45;;;;;;;19.23;10.23;;;;;;;1.94;100.00;94315.88;5079189;28;20224;-69
2020/12/12 00:03:11;;;;;;;25.63;11.63;;;;;;;2.01;100.00;94314.19;5079798;28;20223;-68
2020/12/12 00:05:38;;;;;;;21.07;11.50;;;;;;;1.94;100.00;94311.47;5078978;28;20610;-69
2020/12/12 00:08:04;;;;;;;23.60;11.30;;;;;;;2.00;100.00;94303.00;5079175;28;20204;-69
2020/12/12 00:10:30;;;;;;;28.10;11.63;;;;;;;2.09;100.00;94301.16;5079325;28;20224;-69
2020/12/12 00:12:55;;;;;;;22.43;11.37;;;;;;;2.05;100.00;94300.69;5079421;28;20767;-69
2020/12/12 00:15:22;;;;;;;23.67;11.13;;;;;;;2.03;100.00;94310.44;5077686;28;20286;-69
2020/12/12 00:17:48;;;;;;;23.33;10.77;;;;;;;2.07;100.00;94303.13;5078636;28;20204;-69
2020/12/12 00:20:14;;;;;;;25.43;11.47;;;;;;;2.12;100.00;94306.00;5078724;28;20227;-69
2020/12/12 00:22:40;;;;;;;24.93;11.40;;;;;;;2.07;100.00;94303.91;5078050;28;20663;-69
2020/12/12 00:25:08;;;;;;;24.60;11.40;;;;;;;2.06;100.00;94293.69;5077950;28;20200;-69
2020/12/12 00:27:34;;;;;;;24.03;10.80;;;;;;;2.06;100.00;94301.50;5078694;28;20529;-69
2020/12/12 00:29:59;;;;;;;24.67;11.67;;;;;;;2.10;100.00;94300.16;5078190;28;20223;-69
2020/12/12 00:32:26;;;;;;;20.93;10.63;;;;;;;2.14;100.00;94296.22;5078542;28;20200;-69
2020/12/12 00:34:52;;;;;;;21.70;10.17;;;;;;;2.17;100.00;94299.31;5078317;28;20228;-69
2020/12/12 00:37:18;;;;;;;23.13;10.93;;;;;;;2.24;100.00;94299.41;5077621;28;20497;-69
2020/12/12 00:39:45;;;;;;;22.33;10.67;;;;;;;2.14;100.00;94304.84;5078178;28;20231;-69
2020/12/12 00:42:11;;;;;;;22.43;11.00;;;;;;;2.23;100.00;94309.00;5077583;28;20204;-69
2020/12/12 00:44:37;;;;;;;24.30;11.27;;;;;;;2.26;100.00;94311.25;5079451;28;20646;-69
2020/12/12 00:47:03;;;;;;;26.23;11.83;;;;;;;2.17;100.00;94308.91;5077061;28;20600;-69
2020/12/12 00:49:30;;;;;;;23.97;11.57;;;;;;;2.04;100.00;94309.47;5077397;28;20223;-69
2020/12/12 00:51:56;;;;;;;23.03;11.27;;;;;;;1.95;100.00;94312.28;5078413;28;20290;-68
2020/12/12 00:54:22;;;;;;;21.27;11.00;;;;;;;1.96;100.00;94311.28;5078009;28;20246;-69
2020/12/12 00:56:48;;;;;;;24.83;11.43;;;;;;;1.92;100.00;94315.22;5076204;28;20199;-69
2020/12/12 00:59:14;;;;;;;23.57;11.47;;;;;;;1.99;100.00;94311.75;5077770;28;20338;-69
2020/12/12 01:01:40;;;;;;;21.37;11.10;;;;;;;2.05;100.00;94307.66;5077791;28;20607;-67
2020/12/12 01:04:06;;;;;;;22.17;10.67;;;;;;;2.07;100.00;94303.13;5078338;28;20624;-69
2020/12/12 01:06:33;;;;;;;22.53;10.57;;;;;;;2.05;100.00;94299.88;5077017;28;20664;-69
2020/12/12 01:08:59;;;;;;;22.00;10.67;;;;;;;2.01;100.00;94312.41;5077820;28;20223;-69
2020/12/12 01:11:24;;;;;;;24.20;11.83;;;;;;;1.75;100.00;94292.94;5077968;28;20722;-68
2020/12/12 01:13:50;;;;;;;24.50;11.43;;;;;;;1.90;100.00;94307.59;5077181;28;20730;-68
2020/12/12 01:16:16;;;;;;;22.57;11.13;;;;;;;1.93;100.00;94288.28;5077755;28;20628;-68
2020/12/12 01:18:42;;;;;;;23.73;11.13;;;;;;;1.94;100.00;94306.28;5077438;28;20260;-68
2020/12/12 01:21:09;;;;;;;24.20;11.27;;;;;;;1.86;100.00;94301.13;5077472;28;20202;-68
2020/12/12 01:23:35;;;;;;;25.73;11.20;;;;;;;1.97;100.00;94297.34;5077701;28;20192;-68
2020/12/12 01:26:01;;;;;;;26.07;11.80;;;;;;;1.91;100.00;94306.63;5076327;28;20196;-68
2020/12/12 01:28:27;;;;;;;28.67;11.73;;;;;;;1.90;100.00;94307.59;5077270;28;20207;-68
2020/12/12 01:30:54;;;;;;;23.43;10.80;;;;;;;1.88;100.00;94319.97;5077541;28;20227;-68
2020/12/12 01:33:20;;;;;;;24.30;11.73;;;;;;;1.87;100.00;94312.31;5077821;28;20235;-68
2020/12/12 01:35:46;;;;;;;26.70;12.07;;;;;;;1.83;100.00;94322.25;5076532;28;20200;-68
2020/12/12 01:38:12;;;;;;;27.27;11.40;;;;;;;1.77;100.00;94318.72;5077442;28;20207;-68
2020/12/12 01:40:40;;;;;;;26.70;12.27;;;;;;;1.97;100.00;94320.72;5076958;28;20220;-68
2020/12/12 01:43:08;;;;;;;26.40;12.33;;;;;;;1.93;100.00;94322.03;5076626;28;20195;-68
2020/12/12 01:45:34;;;;;;;27.73;12.57;;;;;;;2.07;100.00;94314.31;5076842;28;20588;-68
2020/12/12 01:48:01;;;;;;;23.83;11.30;;;;;;;2.21;100.00;94313.56;5077613;28;20202;-69
2020/12/12 01:50:28;;;;;;;23.53;11.67;;;;;;;2.14;100.00;94314.41;5076876;28;20314;-68
2020/12/12 01:52:54;;;;;;;22.87;12.20;;;;;;;2.27;100.00;94315.47;5077091;28;20977;-69
2020/12/12 01:55:21;;;;;;;27.50;11.80;;;;;;;2.25;100.00;94304.44;5076882;28;20204;-69
2020/12/12 01:57:49;;;;;;;23.40;11.47;;;;;;;2.14;100.00;94304.03;5076289;28;20222;-68
2020/12/12 02:00:15;;;;;;;27.30;11.40;;;;;;;2.12;100.00;94303.41;5076561;28;20308;-68
2020/12/12 02:02:46;;;;;;;22.80;11.27;;;;;;;2.25;100.00;94306.22;5077296;28;20245;-68
2020/12/12 02:05:38;;;;;;;24.70;11.63;;;;;;;2.02;100.00;94295.03;5077172;28;20290;-68
2020/12/12 02:08:06;;;;;;;29.33;12.40;;;;;;;2.07;100.00;94297.91;5076043;28;20864;-68
2020/12/12 02:10:32;;;;;;;26.60;12.40;;;;;;;1.99;100.00;94305.78;5076772;28;20457;-68
2020/12/12 02:12:59;;;;;;;23.67;11.77;;;;;;;1.81;100.00;94307.84;5077597;28;20257;-68
2020/12/12 02:15:25;;;;;;;23.93;11.77;;;;;;;1.82;100.00;94307.66;5075924;28;20203;-68
2020/12/12 02:17:51;;;;;;;27.87;12.30;;;;;;;1.97;100.00;94311.16;5076699;28;20285;-68
2020/12/12 02:20:16;;;;;;;26.13;11.93;;;;;;;2.08;100.00;94309.94;5076741;28;20229;-69
2020/12/12 02:22:45;;;;;;;24.57;12.50;;;;;;;2.03;100.00;94320.81;5076615;28;20318;-68
2020/12/12 02:25:11;;;;;;;24.40;11.47;;;;;;;2.05;100.00;94315.44;5075757;28;20208;-68
2020/12/12 02:27:37;;;;;;;28.43;13.00;;;;;;;2.12;100.00;94306.00;5076866;28;20210;-68
2020/12/12 02:30:04;;;;;;;23.80;11.37;;;;;;;2.12;100.00;94306.00;5076110;28;20591;-68
2020/12/12 02:32:30;;;;;;;28.07;12.50;;;;;;;2.12;100.00;94306.81;5077247;28;20207;-69
2020/12/12 02:34:55;;;;;;;23.90;11.37;;;;;;;2.22;100.00;94306.59;5076403;28;20619;-68
2020/12/12 02:37:21;;;;;;;25.00;11.10;;;;;;;2.19;100.00;94301.72;5076236;28;20200;-68
2020/12/12 02:39:48;;;;;;;21.87;11.27;;;;;;;2.11;100.00;94306.97;5076393;28;20352;-68
2020/12/12 02:42:14;;;;;;;26.63;11.80;;;;;;;2.10;100.00;94305.34;5076158;28;20674;-68
2020/12/12 02:44:40;;;;;;;24.93;12.60;;;;;;;2.11;100.00;94299.19;5076549;28;20192;-69
2020/12/12 02:47:06;;;;;;;24.67;12.00;;;;;;;2.12;100.00;94296.41;5075762;28;20203;-68
2020/12/12 02:49:32;;;;;;;28.60;12.33;;;;;;;2.26;100.00;94298.25;5076291;28;20294;-68
2020/12/12 02:51:58;;;;;;;23.70;11.00;;;;;;;2.29;100.00;94292.72;5076436;28;20208;-67
2020/12/12 02:54:24;;;;;;;24.87;12.20;;;;;;;2.25;100.00;94301.03;5076533;28;20219;-68
2020/12/12 02:56:51;;;;;;;25.40;12.13;;;;;;;2.13;100.00;94297.25;5075299;28;20734;-68
2020/12/12 02:59:17;;;;;;;25.97;11.67;;;;;;;2.16;100.00;94299.47;5076013;28;20254;-69
2020/12/12 03:01:43;;;;;;;26.90;12.50;;;;;;;2.17;100.00;94304.50;5076484;28;20745;-68
2020/12/12 03:04:10;;;;;;;27.03;11.90;;;;;;;2.21;100.00;94303.16;5075768;28;20873;-68
2020/12/12 03:06:38;;;;;;;30.03;13.03;;;;;;;2.22;100.00;94306.59;5076251;28;20253;-68
2020/12/12 03:09:04;;;;;;;28.67;12.37;;;;;;;2.18;100.00;94303.53;5076213;28;20281;-68
2020/12/12 03:11:30;;;;;;;26.00;12.30;;;;;;;2.18;100.00;94315.72;5076128;28;20192;-69
2020/12/12 03:13:57;;;;;;;26.33;11.83;;;;;;;2.25;100.00;94314.81;5075991;28;20308;-68
2020/12/12 03:16:23;;;;;;;26.27;12.00;;;;;;;2.34;100.00;94305.19;5075646;28;20208;-68
2020/12/12 03:18:49;;;;;;;26.57;11.90;;;;;;;2.19;100.00;94304.31;5077491;28;20595;-69
2020/12/12 03:21:15;;;;;;;26.90;12.27;;;;;;;2.29;100.00;94291.91;5080601;28;21116;-68
2020/12/12 03:23:41;;;;;;;25.77;12.33;;;;;;;2.16;100.00;94295.09;5079813;28;20192;-68
2020/12/12 03:26:07;;;;;;;26.80;13.53;;;;;;;2.00;100.00;94304.81;5079291;28;20204;-68
2020/12/12 03:28:32;;;;;;;26.37;12.53;;;;;;;1.91;100.00;94313.63;5080203;28;20229;-69
2020/12/12 03:30:59;;;;;;;27.27;12.70;;;;;;;1.91;100.00;94305.84;5079462;28;20718;-69
2020/12/12 03:33:25;;;;;;;28.40;13.40;;;;;;;1.86;100.00;94306.34;5080178;28;20584;-68
2020/12/12 03:35:51;;;;;;;28.47;13.97;;;;;;;1.96;100.00;94306.09;5079379;28;20200;-68
2020/12/12 03:38:17;;;;;;;27.53;13.10;;;;;;;1.97;100.00;94297.34;5079581;28;20261;-68
2020/12/12 03:40:43;;;;;;;28.80;12.57;;;;;;;1.99;100.00;94301.38;5079801;28;20227;-69
2020/12/12 03:43:09;;;;;;;31.20;13.07;;;;;;;1.95;100.00;94312.28;5077432;28;20212;-68
2020/12/12 03:45:35;;;;;;;29.30;12.57;;;;;;;1.92;100.00;94315.22;5078784;28;20200;-68
2020/12/12 03:48:02;;;;;;;26.73;12.90;;;;;;;1.89;100.00;94307.78;5079504;28;20200;-69
2020/12/12 03:50:28;;;;;;;23.83;11.00;;;;;;;1.93;100.00;94309.06;5079372;28;20219;-69
2020/12/12 03:52:54;;;;;;;28.13;12.60;;;;;;;1.79;100.00;94320.16;5079048;28;20214;-69
2020/12/12 03:55:20;;;;;;;26.33;12.50;;;;;;;1.57;100.00;94320.94;5078155;28;20227;-68
2020/12/12 03:57:46;;;;;;;28.57;12.63;;;;;;;1.53;100.00;94314.47;5079358;28;20196;-69
2020/12/12 04:00:12;;;;;;;26.50;12.30;;;;;;;1.55;100.00;94322.88;5079349;28;20224;-68
2020/12/12 04:02:38;;;;;;;25.93;11.93;;;;;;;1.56;100.00;94316.72;5079307;28;20281;-69
2020/12/12 04:05:04;;;;;;;27.20;11.20;;;;;;;1.50;100.00;94308.81;5078393;28;20261;-67
2020/12/12 04:07:30;;;;;;;26.80;12.17;;;;;;;1.51;100.00;94310.44;5078773;28;20204;-68
2020/12/12 04:09:56;;;;;;;24.60;11.23;;;;;;;1.26;100.00;94314.91;5078510;28;20293;-68
2020/12/12 04:12:22;;;;;;;25.10;12.53;;;;;;;1.42;100.00;94303.66;5079034;28;20276;-67
2020/12/12 04:14:48;;;;;;;26.80;12.30;;;;;;;1.43;100.00;94307.88;5079239;28;20232;-69
2020/12/12 04:17:14;;;;;;;29.00;12.37;;;;;;;1.49;100.00;94312.38;5078123;28;20759;-68
2020/12/12 04:19:40;;;;;;;26.73;12.40;;;;;;;1.54;100.00;94316.09;5079345;28;20714;-69
2020/12/12 04:22:07;;;;;;;26.60;11.90;;;;;;;1.55;100.00;94315.09;5078711;28;20617;-68
2020/12/12 04:24:33;;;;;;;26.67;12.83;;;;;;;1.48;100.00;94311.56;5078286;28;20196;-67
2020/12/12 04:26:59;;;;;;;27.03;11.93;;;;;;;1.50;100.00;94301.84;5077919;28;20200;-67
2020/12/12 04:29:24;;;;;;;25.10;11.50;;;;;;;1.57;100.00;94297.56;5079115;28;20673;-68
2020/12/12 04:31:50;;;;;;;23.60;11.57;;;;;;;1.60;100.00;94305.00;5078566;28;20226;-68
2020/12/12 04:34:16;;;;;;;22.83;11.00;;;;;;;1.53;100.00;94303.28;5078186;28;20216;-68
2020/12/12 04:36:42;;;;;;;21.67;11.23;;;;;;;1.68;100.00;94305.00;5077840;28;20235;-69
2020/12/12 04:39:10;;;;;;;20.70;10.27;;;;;;;1.59;100.00;94300.00;5078344;28;20228;-69
2020/12/12 04:41:38;;;;;;;26.30;11.10;;;;;;;1.76;100.00;94299.75;5078071;28;20430;-68
2020/12/12 04:44:04;;;;;;;21.83;11.00;;;;;;;1.73;100.00;94302.66;5078009;28;20462;-68
2020/12/12 04:46:31;;;;;;;22.57;10.83;;;;;;;1.75;100.00;94303.31;5077812;28;20207;-69
2020/12/12 04:48:56;;;;;;;22.93;10.90;;;;;;;1.76;100.00;94299.75;5077902;28;20211;-68
2020/12/12 04:51:24;;;;;;;21.20;10.47;;;;;;;1.82;100.00;94304.25;5078496;28;20200;-68
2020/12/12 04:53:51;;;;;;;21.83;10.30;;;;;;;1.89;100.00;94305.19;5078491;28;20593;-69
2020/12/12 04:56:24;;;;;;;21.70;10.73;;;;;;;1.86;100.00;94308.13;5077590;28;20522;-68
2020/12/12 04:58:52;;;;;;;22.57;10.93;;;;;;;1.92;100.00;94316.03;5078193;28;20219;-68
2020/12/12 05:01:18;;;;;;;19.17;10.03;;;;;;;1.82;100.00;94320.63;5078070;28;20659;-68
2020/12/12 05:03:45;;;;;;;22.13;10.30;;;;;;;1.98;100.00;94319.72;5078207;28;20310;-67
2020/12/12 05:06:11;;;;;;;25.50;11.20;;;;;;;2.03;100.00;94310.44;5076908;28;20192;-68
2020/12/12 05:08:37;;;;;;;23.60;10.93;;;;;;;1.98;100.00;94317.94;5077937;28;20470;-68
2020/12/12 05:11:03;;;;;;;25.10;10.63;;;;;;;1.96;100.00;94316.47;5078619;28;20227;-68
2020/12/12 05:13:31;;;;;;;21.20;10.63;;;;;;;2.09;100.00;94311.56;5078458;28;20224;-68
2020/12/12 05:15:58;;;;;;;19.47;10.33;;;;;;;2.10;100.00;94308.78;5077679;28;20745;-68
2020/12/12 05:18:25;;;;;;;21.23;10.03;;;;;;;2.02;100.00;94305.41;5078899;28;20211;-67
2020/12/12 05:20:52;;;;;;;19.17;10.37;;;;;;;1.98;100.00;94312.72;5078126;28;20223;-69
2020/12/12 05:23:19;;;;;;;23.67;10.67;;;;;;;2.07;100.00;94329.09;5078561;28;20200;-68
2020/12/12 05:25:46;;;;;;;22.47;11.00;;;;;;;2.13;100.00;94333.59;5077872;28;20207;-68
2020/12/12 05:28:14;;;;;;;23.63;11.07;;;;;;;2.10;100.00;94328.72;5078724;28;20211;-69
2020/12/12 05:30:43;;;;;;;24.97;12.43;;;;;;;2.03;100.00;94325.22;5077480;28;20216;-68
2020/12/12 05:33:12;;;;;;;22.77;11.03;;;;;;;1.96;100.00;94325.09;5078413;28;20200;-68
2020/12/12 05:35:38;;;;;;;21.17;10.47;;;;;;;1.93;100.00;94320.22;5077276;28;20200;-69
2020/12/12 05:38:07;;;;;;;23.43;11.27;;;;;;;1.88;100.00;94326.94;5078341;28;20199;-68
2020/12/12 05:40:33;;;;;;;22.90;11.33;;;;;;;2.00;100.00;94328.97;5078995;28;20224;-68
2020/12/12 05:43:01;;;;;;;22.53;10.87;;;;;;;2.01;100.00;94325.41;5077613;28;20210;-69
2020/12/12 05:45:27;;;;;;;26.07;11.07;;;;;;;1.96;100.00;94327.69;5076837;28;20199;-68
2020/12/12 05:47:54;;;;;;;22.20;11.10;;;;;;;1.99;100.00;94327.34;5078078;28;20208;-69
2020/12/12 05:50:20;;;;;;;23.90;11.60;;;;;;;1.99;100.00;94319.56;5077758;28;20588;-69
2020/12/12 05:52:51;;;;;;;24.30;11.53;;;;;;;2.04;100.00;94313.84;5078530;28;20294;-69
2020/12/12 05:55:17;;;;;;;25.83;12.27;;;;;;;2.06;100.00;94323.09;5076747;28;20212;-68
2020/12/12 05:57:44;;;;;;;22.53;10.90;;;;;;;2.10;100.00;94319.16;5078071;28;20212;-68
2020/12/12 06:00:10;;;;;;;26.63;11.40;;;;;;;2.21;100.00;94330.94;5077852;28;20260;-68
2020/12/12 06:02:37;;;;;;;23.40;12.13;;;;;;;2.19;100.00;94330.28;5077154;28;20290;-68
2020/12/12 06:05:06;;;;;;;23.37;11.53;;;;;;;2.20;100.00;94324.13;5077154;28;20951;-68
2020/12/12 06:07:33;;;;;;;25.37;11.50;;;;;;;2.21;100.00;94336.13;5077976;28;20199;-68
2020/12/12 06:10:01;;;;;;;27.00;12.20;;;;;;;2.22;100.00;94337.75;5075171;28;20227;-68
2020/12/12 06:12:27;;;;;;;25.80;12.73;;;;;;;2.21;100.00;94339.53;5077147;28;20195;-69
2020/12/12 06:14:55;;;;;;;25.80;13.40;;;;;;;2.26;100.00;94333.84;5076310;28;20235;-67
2020/12/12 06:17:46;;;;;;;24.53;12.60;;;;;;;2.21;100.00;94336.94;5075829;28;20686;-68
2020/12/12 06:20:14;;;;;;;24.63;14.07;;;;;;;2.15;100.00;94337.66;5077522;28;20215;-67
2020/12/12 06:22:42;;;;;;;27.10;14.63;;;;;;;2.19;100.00;94332.91;5077151;28;20291;-69
2020/12/12 06:25:14;;;;;;;26.67;14.17;;;;;;;2.27;100.00;94338.84;5075553;28;20202;-68
2020/12/12 06:27:43;;;;;;;27.40;13.90;;;;;;;2.22;100.00;94332.56;5075533;28;20208;-68
2020/12/12 06:30:12;;;;;;;26.80;13.60;;;;;;;2.19;100.00;94338.09;5075918;28;20227;-69
2020/12/12 06:32:38;;;;;;;36.40;16.17;;;;;;;2.05;100.00;94337.06;5075988;28;20214;-69
2020/12/12 06:35:04;;;;;;;32.67;14.77;;;;;;;2.05;100.00;94341.44;5075071;28;20220;-69
2020/12/12 06:37:33;;;;;;;30.93;14.17;;;;;;;1.95;100.00;94335.66;5075733;28;20207;-68
2020/12/12 06:40:00;;;;;;;27.60;13.30;;;;;;;1.87;100.00;94340.88;5076554;28;20227;-69
2020/12/12 06:42:35;;;;;;;28.73;14.43;;;;;;;1.92;100.00;94335.97;5077597;28;20204;-69
2020/12/12 06:45:03;;;;;;;30.37;14.87;;;;;;;1.90;100.00;94349.16;5076656;28;20668;-69
2020/12/12 06:47:41;;;;;;;30.03;15.03;;;;;;;1.86;100.00;94349.66;5077271;28;20196;-69
2020/12/12 06:50:10;;;;;;;30.07;14.40;;;;;;;1.87;100.00;94348.66;5077230;28;20223;-69
2020/12/12 06:52:37;;;;;;;30.20;14.47;;;;;;;1.87;100.00;94344.31;5077292;28;20544;-68
2020/12/12 06:55:07;;;;;;;32.77;13.83;;;;;;;1.89;100.00;94344.94;5080733;28;20227;-69
2020/12/12 06:57:37;;;;;;;30.73;13.53;;;;;;;1.90;100.00;94350.94;5081670;28;20203;-69
2020/12/12 07:00:05;;;;;;;32.50;14.17;;;;;;;1.84;100.00;94354.22;5081196;28;20226;-71
2020/12/12 07:02:31;;;;;;;29.27;15.17;;;;;;;1.93;100.00;94354.00;5081773;28;20750;-69
2020/12/12 07:05:19;;;;;;;32.33;14.43;;;;;;;1.95;100.00;94361.63;5081490;28;20203;-68
2020/12/12 07:07:46;;;;;;;29.40;15.00;;;;;;;1.91;100.00;94365.56;5081045;28;20214;-68
2020/12/12 07:10:12;;;;;;;31.10;13.70;;;;;;;1.93;100.00;94366.97;5081883;28;20223;-69
2020/12/12 07:12:38;;;;;;;27.97;12.80;;;;;;;1.97;100.00;94364.84;5081195;28;20207;-69
2020/12/12 07:15:04;;;;;;;26.17;12.60;;;;;;;1.94;100.00;94375.59;5080215;28;20226;-72
2020/12/12 07:17:32;;;;;;;27.00;12.37;;;;;;;1.95;100.00;94379.81;5080893;28;20202;-69
2020/12/12 07:19:58;;;;;;;27.53;12.67;;;;;;;1.95;100.00;94379.81;5081572;28;20222;-70
2020/12/12 07:22:24;;;;;;;28.13;13.10;;;;;;;2.00;100.00;94385.31;5081282;28;20203;-69
2020/12/12 07:24:51;;;;;;;25.40;13.23;;;;;;;1.98;100.00;94385.44;5081314;28;20204;-70
2020/12/12 07:27:17;;;;;;;30.60;13.67;;;;;;;2.01;100.00;94381.69;5080270;28;20204;-69
2020/12/12 07:29:43;;;;;;;29.37;12.90;;;;;;;1.99;100.00;94384.47;5080589;28;20713;-70
2020/12/12 07:32:09;;;;;;;28.30;12.93;;;;;;;2.03;100.00;94384.94;5081023;28;20203;-70
2020/12/12 07:34:35;;;;;;;30.70;13.07;;;;;;;2.10;100.00;94388.47;5081051;28;20297;-70
2020/12/12 07:37:03;;;;;;;25.77;12.83;;;;;;;2.15;100.00;94389.59;5080616;28;20192;-70
2020/12/12 07:39:30;;;;;;;26.80;12.90;;;;;;;2.22;100.00;94389.72;5080568;28;20308;-70
2020/12/12 07:41:59;;;;;;;26.10;12.40;;;;;;;2.21;100.00;94388.09;5080699;28;20204;-70
2020/12/12 07:44:26;;;;;;;32.50;14.73;;;;;;;2.23;100.00;94392.16;5080777;28;20245;-70
2020/12/12 07:46:57;;;;;;;28.10;14.07;;;;;;;2.25;100.00;94392.75;5079644;28;20207;-70
2020/12/12 07:49:23;;;;;;;32.37;14.50;;;;;;;2.25;100.00;94394.56;5080666;28;20250;-70
2020/12/12 07:51:58;;;;;;;33.30;13.80;;;;;;;2.24;100.00;94403.34;5080585;28;20235;-70
2020/12/12 07:54:31;;;;;;;32.17;14.77;;;;;;;2.27;100.00;94410.81;5080790;28;20219;-70
2020/12/12 07:56:58;;;;;;;53.50;28.03;;;;;;;2.23;100.00;94415.53;5079409;28;20207;-70
2020/12/12 07:59:24;;;;;;;49.73;24.57;;;;;;;2.18;100.00;94420.41;5080301;28;20227;-70
2020/12/12 08:01:51;;;;;;;45.00;23.10;;;;;;;2.25;100.00;94416.16;5080201;28;20232;-70
2020/12/12 08:04:23;;;;;;;39.20;19.13;;;;;;;2.27;100.00;94416.78;5080184;28;20571;-70
2020/12/12 08:06:50;;;;;;;28.90;13.97;;;;;;;2.29;100.00;94422.66;5078070;28;20204;-70
2020/12/12 08:09:20;;;;;;;38.43;15.00;;;;;;;2.36;100.00;94422.75;5078716;28;20903;-70
2020/12/12 08:11:55;;;;;;;51.13;18.10;;;;;;;2.36;100.00;94427.97;5079228;28;20216;-70
2020/12/12 08:14:22;;;;;;;34.80;15.50;;;;;;;2.40;100.00;94419.63;5078391;28;20223;-70
2020/12/12 08:16:53;;;;;;;36.87;15.60;;;;;;;2.42;100.00;94434.06;5077239;28;20204;-70
2020/12/12 08:19:19;;;;;;;36.40;14.60;;;;;;;2.51;100.00;94433.03;5078194;28;20360;-70
2020/12/12 08:21:49;;;;;;;36.70;15.30;;;;;;;2.48;100.00;94432.56;5079935;28;20203;-70
2020/12/12 08:24:15;;;;;;;51.03;20.67;;;;;;;2.52;100.00;94439.88;5080588;28;20590;-70
2020/12/12 08:26:42;;;;;;;55.97;21.93;;;;;;;2.50;100.00;94444.41;5078276;28;20204;-70
2020/12/12 08:29:08;;;;;;;43.97;16.43;;;;;;;2.52;100.00;94439.88;5079148;28;20216;-70
2020/12/12 08:31:39;;;;;;;29.53;14.30;;;;;;;2.56;100.00;94440.34;5079940;28;20195;-70
2020/12/12 08:34:07;;;;;;;28.70;13.33;;;;;;;2.68;100.00;94450.16;5079693;28;20223;-70
2020/12/12 08:36:35;;;;;;;29.40;13.90;;;;;;;2.71;100.00;94454.19;5078796;28;20199;-70
2020/12/12 08:39:03;;;;;;;29.43;13.13;;;;;;;2.80;100.00;94459.19;5079072;28;20199;-70
2020/12/12 08:41:31;;;;;;;29.03;13.70;;;;;;;2.84;100.00;94457.84;5079545;28;20211;-70
2020/12/12 08:43:57;;;;;;;36.00;15.80;;;;;;;2.87;100.00;94454.88;5079391;28;20476;-70
2020/12/12 08:46:23;;;;;;;33.43;15.53;;;;;;;2.88;100.00;94456.50;5078760;28;20730;-70
2020/12/12 08:48:52;;;;;;;27.70;13.13;;;;;;;2.94;100.00;94466.25;5079195;28;20694;-70
2020/12/12 08:51:23;;;;;;;30.93;14.27;;;;;;;2.92;100.00;94462.19;5078120;28;20305;-69
2020/12/12 08:53:50;;;;;;;27.13;13.10;;;;;;;2.91;100.00;94470.97;5078878;28;20852;-69
2020/12/12 08:56:25;;;;;;;30.73;14.80;;;;;;;2.97;100.00;94468.47;5077246;28;20230;-70
2020/12/12 08:58:54;;;;;;;29.37;14.70;;;;;;;2.96;100.00;94474.66;5078561;28;20214;-70
2020/12/12 09:01:30;;;;;;;33.80;16.20;;;;;;;3.03;100.00;94468.59;5078279;28;20200;-70
2020/12/12 09:03:59;;;;;;;29.37;14.23;;;;;;;3.03;100.00;94476.38;5078053;28;20571;-70
2020/12/12 09:06:27;;;;;;;31.67;14.40;;;;;;;3.02;100.00;94479.19;5077633;28;20697;-70
2020/12/12 09:09:11;;;;;;;36.17;15.83;;;;;;;3.01;100.00;94481.97;5078951;28;20222;-70
2020/12/12 09:11:38;;;;;;;29.10;14.40;;;;;;;3.00;100.00;94483.72;5079192;28;20199;-69
2020/12/12 09:14:04;;;;;;;36.47;17.57;;;;;;;3.01;100.00;94493.16;5078686;28;20238;-69
2020/12/12 09:16:30;;;;;;;34.13;16.23;;;;;;;3.06;100.00;94494.25;5077040;28;20227;-69
2020/12/12 09:18:57;;;;;;;34.03;16.30;;;;;;;3.11;100.00;94496.34;5078644;28;20666;-70
2020/12/12 09:21:24;;;;;;;33.60;15.93;;;;;;;3.21;100.00;94491.72;5078906;28;20211;-70
2020/12/12 09:23:51;;;;;;;26.00;13.93;;;;;;;3.24;100.00;94497.34;5077779;28;20315;-70
2020/12/12 09:26:19;;;;;;;36.47;16.80;;;;;;;3.32;100.00;94494.72;5078108;28;20222;-70
2020/12/12 09:28:44;;;;;;;40.47;17.30;;;;;;;3.32;100.00;94497.31;5078270;28;20615;-70
2020/12/12 09:31:11;;;;;;;33.30;15.17;;;;;;;3.35;100.00;94496.16;5078014;28;20199;-70
2020/12/12 09:33:36;;;;;;;39.17;18.53;;;;;;;3.36;100.00;94498.56;5078776;28;20203;-70
2020/12/12 09:36:04;;;;;;;35.10;18.27;;;;;;;3.45;100.00;94494.09;5078696;28;20223;-70
2020/12/12 09:38:31;;;;;;;37.53;19.73;;;;;;;3.49;100.00;94493.56;5078092;28;20258;-70
2020/12/12 09:40:57;;;;;;;40.63;19.17;;;;;;;3.53;100.00;94505.25;5077672;28;20219;-69
2020/12/12 09:43:23;;;;;;;41.33;18.90;;;;;;;3.54;100.00;94501.66;5077214;28;20204;-70
2020/12/12 09:45:49;;;;;;;44.07;20.50;;;;;;;3.55;100.00;94507.66;5077439;28;20211;-70
2020/12/12 09:48:15;;;;;;;39.87;17.97;;;;;;;3.62;100.00;94510.19;5077636;28;20642;-70
2020/12/12 09:50:41;;;;;;;34.43;17.27;;;;;;;3.67;100.00;94504.47;5077968;28;20220;-70
2020/12/12 09:53:09;;;;;;;33.20;16.63;;;;;;;3.77;100.00;94503.22;5078390;28;20203;-70
2020/12/12 09:55:37;;;;;;;31.60;14.53;;;;;;;3.76;100.00;94512.00;5077421;28;20219;-70
2020/12/12 09:58:04;;;;;;;31.10;14.80;;;;;;;3.83;100.00;94510.34;5077541;28;20606;-70
2020/12/12 10:00:31;;;;;;;33.57;15.23;;;;;;;3.84;100.00;94514.53;5077579;28;20226;-69
2020/12/12 10:02:57;;;;;;;33.37;14.93;;;;;;;3.88;100.00;94515.81;5077708;28;20203;-69
2020/12/12 10:05:23;;;;;;;26.90;13.43;;;;;;;3.75;100.00;94515.59;5077036;28;20196;-70
2020/12/12 10:07:49;;;;;;;30.17;14.43;;;;;;;3.64;100.00;94508.22;5077472;28;20273;-70
2020/12/12 10:10:16;;;;;;;27.23;12.93;;;;;;;3.52;100.00;94521.84;5077173;28;20323;-69
2020/12/12 10:12:42;;;;;;;53.67;24.20;;;;;;;3.56;100.00;94515.31;5076664;28;20210;-70
2020/12/12 10:15:08;;;;;;;37.33;17.50;;;;;;;3.60;100.00;94524.38;5075883;28;20227;-70
2020/12/12 10:17:34;;;;;;;30.47;14.03;;;;;;;3.61;100.00;94525.19;5077212;28;20215;-70
2020/12/12 10:20:00;;;;;;;26.70;13.87;;;;;;;3.59;100.00;94528.00;5075889;28;20306;-70
2020/12/12 10:22:26;;;;;;;40.17;17.27;;;;;;;3.62;100.00;94534.63;5076329;28;20195;-70
2020/12/12 10:24:52;;;;;;;32.07;15.93;;;;;;;3.65;100.00;94528.09;5077203;28;20195;-70
2020/12/12 10:27:19;;;;;;;30.97;15.10;;;;;;;3.54;100.00;94532.91;5076301;28;20287;-70
2020/12/12 10:29:45;;;;;;;25.70;13.33;;;;;;;3.51;100.00;94535.06;5076951;28;20227;-70
2020/12/12 10:32:12;;;;;;;28.23;13.53;;;;;;;3.46;100.00;94532.97;5077362;28;20199;-70
2020/12/12 10:34:37;;;;;;;40.90;18.17;;;;;;;3.55;100.00;94531.09;5076987;28;20219;-70
2020/12/12 10:37:03;;;;;;;43.53;18.13;;;;;;;3.60;100.00;94536.59;5076014;28;20276;-70
2020/12/12 10:39:31;;;;;;;26.23;12.17;;;;;;;3.53;100.00;94535.69;5077526;28;20220;-69
2020/12/12 10:41:58;;;;;;;26.13;13.20;;;;;;;3.47;100.00;94542.38;5077127;28;20204;-69
2020/12/12 10:44:25;;;;;;;27.67;13.53;;;;;;;3.55;100.00;94544.91;5076259;28;20316;-70
2020/12/12 10:46:51;;;;;;;28.17;13.60;;;;;;;3.56;100.00;94545.75;5076850;28;20199;-70
2020/12/12 10:49:18;;;;;;;28.80;14.23;;;;;;;3.59;100.00;94550.59;5075519;28;20606;-69
2020/12/12 10:51:48;;;;;;;29.57;12.80;;;;;;;3.63;100.00;94550.88;5074818;28;20230;-69
2020/12/12 10:54:15;;;;;;;27.40;13.50;;;;;;;3.80;100.00;94547.13;5075481;28;21133;-70
2020/12/12 10:56:41;;;;;;;26.70;12.70;;;;;;;3.95;100.00;94547.97;5076346;28;20208;-70
2020/12/12 10:59:07;;;;;;;26.77;12.23;;;;;;;4.04;100.00;94546.09;5076021;28;20227;-70
2020/12/12 11:01:34;;;;;;;25.33;12.17;;;;;;;4.12;100.00;94557.25;5075838;28;20246;-70
2020/12/12 11:04:00;;;;;;;23.20;11.90;;;;;;;3.97;100.00;94553.84;5076451;28;20215;-70
2020/12/12 11:06:26;;;;;;;26.70;12.60;;;;;;;4.05;100.00;94558.94;5075029;28;20291;-70
2020/12/12 11:08:52;;;;;;;24.43;12.73;;;;;;;3.97;100.00;94553.84;5076081;28;20200;-69
2020/12/12 11:11:18;;;;;;;25.23;12.00;;;;;;;3.93;100.00;94559.56;5076082;28;20200;-70
2020/12/12 11:13:44;;;;;;;27.73;13.30;;;;;;;3.93;100.00;94564.78;5076349;28;20784;-70
2020/12/12 11:16:10;;;;;;;22.97;11.90;;;;;;;3.93;100.00;94562.97;5076219;28;20216;-70